sensor_id;sensor_type;location;lat;lon;timestamp;P1;durP1;ratioP1;P2;durP2;ratioP2
42196;SDS011;27866;48.146;17.098;2022-12-18T00:03:23;27.23;;;13.38;;
42196;SDS011;27866;48.146;17.098;2022-12-18T00:07:35;32.53;;;15.25;;
42196;SDS011;27866;48.146;17.098;2022-12-18T00:11:47;28.65;;;14.32;;
42196;SDS011;27866;48.146;17.098;2022-12-18T00:16:02;30.73;;;14.68;;
42196;SDS011;27866;48.146;17.098;2022-12-18T00:20:15;29.27;;;14.43;;
42196;SDS011;27866;48.146;17.098;2022-12-18T00:24:31;28.67;;;14.13;;
42196;SDS011;27866;48.146;17.098;2022-12-18T00:28:43;32.13;;;15.25;;
42196;SDS011;27866;48.146;17.098;2022-12-18T00:32:55;31.88;;;15.40;;
42196;SDS011;27866;48.146;17.098;2022-12-18T00:37:09;33.05;;;16.88;;
42196;SDS011;27866;48.146;17.098;2022-12-18T00:41:20;34.50;;;15.90;;
42196;SDS011;27866;48.146;17.098;2022-12-18T00:45:51;35.40;;;16.08;;
42196;SDS011;27866;48.146;17.098;2022-12-18T00:50:02;37.05;;;17.17;;
42196;SDS011;27866;48.146;17.098;2022-12-18T00:54:14;37.47;;;16.25;;
42196;SDS011;27866;48.146;17.098;2022-12-18T00:58:26;36.10;;;17.35;;
42196;SDS011;27866;48.146;17.098;2022-12-18T01:02:37;36.83;;;17.08;;
42196;SDS011;27866;48.146;17.098;2022-12-18T01:06:51;39.25;;;17.02;;
42196;SDS011;27866;48.146;17.098;2022-12-18T01:11:09;38.88;;;17.35;;
42196;SDS011;27866;48.146;17.098;2022-12-18T01:15:24;37.75;;;17.42;;
42196;SDS011;27866;48.146;17.098;2022-12-18T01:19:35;33.05;;;16.10;;
42196;SDS011;27866;48.146;17.098;2022-12-18T01:23:50;34.17;;;16.48;;
42196;SDS011;27866;48.146;17.098;2022-12-18T01:28:07;36.45;;;15.90;;
42196;SDS011;27866;48.146;17.098;2022-12-18T01:32:19;39.13;;;17.85;;
42196;SDS011;27866;48.146;17.098;2022-12-18T01:36:31;37.88;;;17.38;;
42196;SDS011;27866;48.146;17.098;2022-12-18T01:40:45;35.97;;;16.83;;
42196;SDS011;27866;48.146;17.098;2022-12-18T01:45:08;38.05;;;17.45;;
42196;SDS011;27866;48.146;17.098;2022-12-18T01:49:35;39.28;;;17.67;;
42196;SDS011;27866;48.146;17.098;2022-12-18T01:53:46;38.15;;;19.15;;
42196;SDS011;27866;48.146;17.098;2022-12-18T01:57:59;38.15;;;19.35;;
42196;SDS011;27866;48.146;17.098;2022-12-18T02:02:11;42.85;;;18.17;;
42196;SDS011;27866;48.146;17.098;2022-12-18T02:15:39;41.10;;;19.08;;
42196;SDS011;27866;48.146;17.098;2022-12-18T02:20:14;40.95;;;19.65;;
42196;SDS011;27866;48.146;17.098;2022-12-18T02:33:21;48.83;;;19.98;;
42196;SDS011;27866;48.146;17.098;2022-12-18T02:41:50;39.60;;;18.98;;
42196;SDS011;27866;48.146;17.098;2022-12-18T02:46:23;39.40;;;17.98;;
42196;SDS011;27866;48.146;17.098;2022-12-18T02:50:42;47.92;;;20.52;;
42196;SDS011;27866;48.146;17.098;2022-12-18T02:59:41;45.70;;;20.17;;
42196;SDS011;27866;48.146;17.098;2022-12-18T03:04:19;46.78;;;21.13;;
42196;SDS011;27866;48.146;17.098;2022-12-18T03:08:38;40.83;;;19.85;;
42196;SDS011;27866;48.146;17.098;2022-12-18T03:13:20;42.72;;;19.70;;
42196;SDS011;27866;48.146;17.098;2022-12-18T03:18:05;49.72;;;21.23;;
42196;SDS011;27866;48.146;17.098;2022-12-18T03:22:31;50.90;;;21.20;;
42196;SDS011;27866;48.146;17.098;2022-12-18T03:26:45;52.63;;;21.88;;
42196;SDS011;27866;48.146;17.098;2022-12-18T03:31:02;44.97;;;19.95;;
42196;SDS011;27866;48.146;17.098;2022-12-18T03:35:16;52.13;;;22.45;;
42196;SDS011;27866;48.146;17.098;2022-12-18T03:39:37;50.42;;;21.05;;
42196;SDS011;27866;48.146;17.098;2022-12-18T03:43:52;50.10;;;21.27;;
42196;SDS011;27866;48.146;17.098;2022-12-18T03:48:51;51.65;;;21.95;;
42196;SDS011;27866;48.146;17.098;2022-12-18T03:53:24;55.45;;;22.42;;
42196;SDS011;27866;48.146;17.098;2022-12-18T03:58:24;52.75;;;22.85;;
42196;SDS011;27866;48.146;17.098;2022-12-18T04:02:46;51.33;;;22.63;;
42196;SDS011;27866;48.146;17.098;2022-12-18T04:07:07;55.60;;;21.88;;
42196;SDS011;27866;48.146;17.098;2022-12-18T04:11:22;51.67;;;21.35;;
42196;SDS011;27866;48.146;17.098;2022-12-18T04:15:34;52.40;;;22.48;;
42196;SDS011;27866;48.146;17.098;2022-12-18T04:19:48;54.58;;;21.10;;
42196;SDS011;27866;48.146;17.098;2022-12-18T04:24:00;54.85;;;23.33;;
42196;SDS011;27866;48.146;17.098;2022-12-18T04:28:12;56.58;;;23.15;;
42196;SDS011;27866;48.146;17.098;2022-12-18T04:32:25;53.05;;;23.40;;
42196;SDS011;27866;48.146;17.098;2022-12-18T04:36:36;57.60;;;23.35;;
42196;SDS011;27866;48.146;17.098;2022-12-18T04:40:47;47.13;;;22.20;;
42196;SDS011;27866;48.146;17.098;2022-12-18T04:45:06;57.78;;;23.13;;
42196;SDS011;27866;48.146;17.098;2022-12-18T04:49:18;53.13;;;23.33;;
42196;SDS011;27866;48.146;17.098;2022-12-18T04:53:29;57.05;;;22.55;;
42196;SDS011;27866;48.146;17.098;2022-12-18T04:57:41;53.88;;;23.08;;
42196;SDS011;27866;48.146;17.098;2022-12-18T05:01:52;56.35;;;24.38;;
42196;SDS011;27866;48.146;17.098;2022-12-18T05:06:04;55.78;;;23.05;;
42196;SDS011;27866;48.146;17.098;2022-12-18T05:10:16;55.30;;;23.52;;
42196;SDS011;27866;48.146;17.098;2022-12-18T05:14:28;55.30;;;23.13;;
42196;SDS011;27866;48.146;17.098;2022-12-18T05:18:39;59.00;;;23.60;;
42196;SDS011;27866;48.146;17.098;2022-12-18T05:22:51;58.33;;;23.70;;
42196;SDS011;27866;48.146;17.098;2022-12-18T05:27:03;55.20;;;23.98;;
42196;SDS011;27866;48.146;17.098;2022-12-18T05:31:15;53.90;;;23.13;;
42196;SDS011;27866;48.146;17.098;2022-12-18T05:35:26;59.65;;;23.63;;
42196;SDS011;27866;48.146;17.098;2022-12-18T05:39:37;60.75;;;24.17;;
42196;SDS011;27866;48.146;17.098;2022-12-18T05:43:48;57.58;;;23.48;;
42196;SDS011;27866;48.146;17.098;2022-12-18T05:47:59;56.97;;;23.83;;
42196;SDS011;27866;48.146;17.098;2022-12-18T05:52:10;57.45;;;23.08;;
42196;SDS011;27866;48.146;17.098;2022-12-18T05:56:22;61.08;;;23.60;;
42196;SDS011;27866;48.146;17.098;2022-12-18T06:00:36;64.13;;;24.23;;
42196;SDS011;27866;48.146;17.098;2022-12-18T06:04:51;52.92;;;23.60;;
42196;SDS011;27866;48.146;17.098;2022-12-18T06:09:02;61.20;;;23.85;;
42196;SDS011;27866;48.146;17.098;2022-12-18T06:13:19;66.90;;;24.92;;
42196;SDS011;27866;48.146;17.098;2022-12-18T06:17:31;59.13;;;22.92;;
42196;SDS011;27866;48.146;17.098;2022-12-18T06:21:44;63.88;;;24.42;;
42196;SDS011;27866;48.146;17.098;2022-12-18T06:25:55;53.85;;;23.75;;
42196;SDS011;27866;48.146;17.098;2022-12-18T06:30:06;60.83;;;25.80;;
42196;SDS011;27866;48.146;17.098;2022-12-18T06:34:18;69.72;;;25.35;;
42196;SDS011;27866;48.146;17.098;2022-12-18T06:38:30;65.13;;;23.48;;
42196;SDS011;27866;48.146;17.098;2022-12-18T06:42:47;57.28;;;22.55;;
42196;SDS011;27866;48.146;17.098;2022-12-18T06:46:58;60.15;;;22.83;;
42196;SDS011;27866;48.146;17.098;2022-12-18T06:51:09;65.47;;;23.50;;
42196;SDS011;27866;48.146;17.098;2022-12-18T06:55:20;53.97;;;21.05;;
42196;SDS011;27866;48.146;17.098;2022-12-18T06:59:32;60.58;;;23.33;;
42196;SDS011;27866;48.146;17.098;2022-12-18T07:03:43;63.75;;;23.83;;
42196;SDS011;27866;48.146;17.098;2022-12-18T07:07:54;64.22;;;24.10;;
42196;SDS011;27866;48.146;17.098;2022-12-18T07:12:05;63.95;;;24.75;;
42196;SDS011;27866;48.146;17.098;2022-12-18T07:16:19;61.88;;;23.55;;
42196;SDS011;27866;48.146;17.098;2022-12-18T07:20:31;70.13;;;24.70;;
42196;SDS011;27866;48.146;17.098;2022-12-18T07:24:42;57.58;;;22.75;;
42196;SDS011;27866;48.146;17.098;2022-12-18T07:28:54;55.10;;;22.30;;
42196;SDS011;27866;48.146;17.098;2022-12-18T07:33:07;64.70;;;23.95;;
42196;SDS011;27866;48.146;17.098;2022-12-18T07:37:18;62.25;;;25.48;;
42196;SDS011;27866;48.146;17.098;2022-12-18T07:41:30;58.00;;;24.05;;
42196;SDS011;27866;48.146;17.098;2022-12-18T07:45:44;63.97;;;24.73;;
42196;SDS011;27866;48.146;17.098;2022-12-18T07:49:55;56.80;;;24.05;;
42196;SDS011;27866;48.146;17.098;2022-12-18T07:54:06;54.13;;;21.85;;
42196;SDS011;27866;48.146;17.098;2022-12-18T07:58:17;63.55;;;21.58;;
42196;SDS011;27866;48.146;17.098;2022-12-18T08:02:30;51.78;;;20.98;;
42196;SDS011;27866;48.146;17.098;2022-12-18T08:06:42;52.88;;;21.63;;
42196;SDS011;27866;48.146;17.098;2022-12-18T08:10:53;57.20;;;22.77;;
42196;SDS011;27866;48.146;17.098;2022-12-18T08:15:04;55.80;;;22.88;;
42196;SDS011;27866;48.146;17.098;2022-12-18T08:19:16;51.88;;;22.15;;
42196;SDS011;27866;48.146;17.098;2022-12-18T08:23:28;59.10;;;22.85;;
42196;SDS011;27866;48.146;17.098;2022-12-18T08:27:39;52.25;;;23.38;;
42196;SDS011;27866;48.146;17.098;2022-12-18T08:31:50;51.28;;;24.05;;
42196;SDS011;27866;48.146;17.098;2022-12-18T08:36:01;55.78;;;23.77;;
42196;SDS011;27866;48.146;17.098;2022-12-18T08:40:14;53.22;;;22.98;;
42196;SDS011;27866;48.146;17.098;2022-12-18T08:44:25;57.47;;;23.42;;
42196;SDS011;27866;48.146;17.098;2022-12-18T08:48:52;56.40;;;25.17;;
42196;SDS011;27866;48.146;17.098;2022-12-18T08:53:06;54.22;;;24.00;;
42196;SDS011;27866;48.146;17.098;2022-12-18T08:57:17;55.60;;;24.45;;
42196;SDS011;27866;48.146;17.098;2022-12-18T09:01:28;53.90;;;24.80;;
42196;SDS011;27866;48.146;17.098;2022-12-18T09:05:39;60.67;;;24.50;;
42196;SDS011;27866;48.146;17.098;2022-12-18T09:09:50;58.58;;;23.90;;
42196;SDS011;27866;48.146;17.098;2022-12-18T09:14:02;52.72;;;23.70;;
42196;SDS011;27866;48.146;17.098;2022-12-18T09:18:14;55.72;;;25.85;;
42196;SDS011;27866;48.146;17.098;2022-12-18T09:22:26;53.72;;;23.70;;
42196;SDS011;27866;48.146;17.098;2022-12-18T09:26:37;61.53;;;26.15;;
42196;SDS011;27866;48.146;17.098;2022-12-18T09:30:48;50.47;;;24.33;;
42196;SDS011;27866;48.146;17.098;2022-12-18T09:35:00;54.97;;;23.63;;
42196;SDS011;27866;48.146;17.098;2022-12-18T09:39:12;51.08;;;24.42;;
42196;SDS011;27866;48.146;17.098;2022-12-18T09:43:24;54.97;;;23.17;;
42196;SDS011;27866;48.146;17.098;2022-12-18T09:47:39;53.67;;;23.60;;
42196;SDS011;27866;48.146;17.098;2022-12-18T09:51:56;45.83;;;21.95;;
42196;SDS011;27866;48.146;17.098;2022-12-18T09:56:20;48.20;;;21.85;;
42196;SDS011;27866;48.146;17.098;2022-12-18T10:00:33;53.38;;;23.65;;
42196;SDS011;27866;48.146;17.098;2022-12-18T10:04:46;44.00;;;20.80;;
42196;SDS011;27866;48.146;17.098;2022-12-18T10:14:09;45.15;;;20.23;;
42196;SDS011;27866;48.146;17.098;2022-12-18T10:28:15;47.22;;;20.73;;
42196;SDS011;27866;48.146;17.098;2022-12-18T10:32:29;49.25;;;21.42;;
42196;SDS011;27866;48.146;17.098;2022-12-18T10:36:41;53.83;;;22.85;;
42196;SDS011;27866;48.146;17.098;2022-12-18T10:45:16;48.25;;;24.30;;
42196;SDS011;27866;48.146;17.098;2022-12-18T10:49:31;48.97;;;21.60;;
42196;SDS011;27866;48.146;17.098;2022-12-18T10:53:47;47.40;;;23.42;;
42196;SDS011;27866;48.146;17.098;2022-12-18T11:02:38;49.60;;;24.63;;
42196;SDS011;27866;48.146;17.098;2022-12-18T11:15:47;52.05;;;24.42;;
42196;SDS011;27866;48.146;17.098;2022-12-18T11:19:59;46.15;;;23.42;;
42196;SDS011;27866;48.146;17.098;2022-12-18T11:24:22;52.08;;;22.98;;
42196;SDS011;27866;48.146;17.098;2022-12-18T11:28:49;48.00;;;22.75;;
42196;SDS011;27866;48.146;17.098;2022-12-18T11:33:21;44.45;;;21.48;;
42196;SDS011;27866;48.146;17.098;2022-12-18T11:37:33;47.53;;;22.27;;
42196;SDS011;27866;48.146;17.098;2022-12-18T11:41:53;43.95;;;21.50;;
42196;SDS011;27866;48.146;17.098;2022-12-18T11:46:38;44.03;;;22.05;;
42196;SDS011;27866;48.146;17.098;2022-12-18T11:50:58;44.28;;;21.98;;
42196;SDS011;27866;48.146;17.098;2022-12-18T11:55:33;50.28;;;23.10;;
42196;SDS011;27866;48.146;17.098;2022-12-18T12:04:35;47.35;;;21.42;;
42196;SDS011;27866;48.146;17.098;2022-12-18T12:23:19;44.67;;;20.73;;
42196;SDS011;27866;48.146;17.098;2022-12-18T12:27:50;42.65;;;19.52;;
42196;SDS011;27866;48.146;17.098;2022-12-18T12:41:58;48.45;;;20.80;;
42196;SDS011;27866;48.146;17.098;2022-12-18T12:46:28;47.53;;;21.65;;
42196;SDS011;27866;48.146;17.098;2022-12-18T12:50:44;37.10;;;18.02;;
42196;SDS011;27866;48.146;17.098;2022-12-18T12:54:57;44.13;;;20.55;;
42196;SDS011;27866;48.146;17.098;2022-12-18T12:59:22;45.20;;;20.88;;
42196;SDS011;27866;48.146;17.098;2022-12-18T13:04:23;47.55;;;20.38;;
42196;SDS011;27866;48.146;17.098;2022-12-18T13:08:53;44.60;;;20.55;;
42196;SDS011;27866;48.146;17.098;2022-12-18T13:13:09;48.20;;;20.58;;
42196;SDS011;27866;48.146;17.098;2022-12-18T13:21:39;43.55;;;20.63;;
42196;SDS011;27866;48.146;17.098;2022-12-18T13:25:51;45.45;;;19.45;;
42196;SDS011;27866;48.146;17.098;2022-12-18T13:34:42;46.97;;;19.88;;
42196;SDS011;27866;48.146;17.098;2022-12-18T13:39:38;44.80;;;20.23;;
42196;SDS011;27866;48.146;17.098;2022-12-18T13:43:32;44.08;;;18.70;;
42196;SDS011;27866;48.146;17.098;2022-12-18T13:48:03;44.10;;;19.33;;
42196;SDS011;27866;48.146;17.098;2022-12-18T13:52:18;40.33;;;18.58;;
42196;SDS011;27866;48.146;17.098;2022-12-18T13:56:33;44.40;;;19.90;;
42196;SDS011;27866;48.146;17.098;2022-12-18T14:00:44;40.85;;;20.15;;
42196;SDS011;27866;48.146;17.098;2022-12-18T14:04:55;50.35;;;20.88;;
42196;SDS011;27866;48.146;17.098;2022-12-18T14:09:08;42.72;;;20.42;;
42196;SDS011;27866;48.146;17.098;2022-12-18T14:13:31;40.72;;;18.13;;
42196;SDS011;27866;48.146;17.098;2022-12-18T14:17:47;41.33;;;19.38;;
42196;SDS011;27866;48.146;17.098;2022-12-18T14:21:59;44.80;;;18.23;;
42196;SDS011;27866;48.146;17.098;2022-12-18T14:26:27;41.38;;;19.45;;
42196;SDS011;27866;48.146;17.098;2022-12-18T14:30:42;42.95;;;19.92;;
42196;SDS011;27866;48.146;17.098;2022-12-18T14:39:12;43.33;;;18.23;;
42196;SDS011;27866;48.146;17.098;2022-12-18T14:43:29;46.88;;;20.23;;
42196;SDS011;27866;48.146;17.098;2022-12-18T14:47:44;49.08;;;20.63;;
42196;SDS011;27866;48.146;17.098;2022-12-18T14:51:59;43.67;;;20.52;;
42196;SDS011;27866;48.146;17.098;2022-12-18T14:56:17;47.88;;;20.92;;
42196;SDS011;27866;48.146;17.098;2022-12-18T15:00:35;48.45;;;19.80;;
42196;SDS011;27866;48.146;17.098;2022-12-18T15:05:00;49.92;;;21.30;;
42196;SDS011;27866;48.146;17.098;2022-12-18T15:09:23;48.05;;;21.42;;
42196;SDS011;27866;48.146;17.098;2022-12-18T15:17:47;55.65;;;20.00;;
42196;SDS011;27866;48.146;17.098;2022-12-18T15:21:58;54.22;;;23.60;;
42196;SDS011;27866;48.146;17.098;2022-12-18T15:26:10;55.38;;;22.98;;
42196;SDS011;27866;48.146;17.098;2022-12-18T15:30:25;58.22;;;24.13;;
42196;SDS011;27866;48.146;17.098;2022-12-18T15:34:36;70.05;;;29.15;;
42196;SDS011;27866;48.146;17.098;2022-12-18T15:38:48;67.20;;;28.73;;
42196;SDS011;27866;48.146;17.098;2022-12-18T15:43:04;77.63;;;29.45;;
42196;SDS011;27866;48.146;17.098;2022-12-18T15:47:37;69.68;;;29.00;;
42196;SDS011;27866;48.146;17.098;2022-12-18T15:51:50;72.30;;;29.08;;
42196;SDS011;27866;48.146;17.098;2022-12-18T15:56:10;67.65;;;28.88;;
42196;SDS011;27866;48.146;17.098;2022-12-18T16:00:41;75.20;;;30.52;;
42196;SDS011;27866;48.146;17.098;2022-12-18T16:04:52;73.32;;;29.80;;
42196;SDS011;27866;48.146;17.098;2022-12-18T16:09:04;72.72;;;29.45;;
42196;SDS011;27866;48.146;17.098;2022-12-18T16:13:16;69.28;;;30.05;;
42196;SDS011;27866;48.146;17.098;2022-12-18T16:17:29;65.43;;;28.58;;
42196;SDS011;27866;48.146;17.098;2022-12-18T16:21:41;70.82;;;29.02;;
42196;SDS011;27866;48.146;17.098;2022-12-18T16:25:53;69.50;;;28.65;;
42196;SDS011;27866;48.146;17.098;2022-12-18T16:30:04;67.70;;;27.88;;
42196;SDS011;27866;48.146;17.098;2022-12-18T16:34:20;59.28;;;27.98;;
42196;SDS011;27866;48.146;17.098;2022-12-18T16:38:53;71.60;;;29.20;;
42196;SDS011;27866;48.146;17.098;2022-12-18T16:43:05;72.95;;;29.27;;
42196;SDS011;27866;48.146;17.098;2022-12-18T16:47:17;73.65;;;29.60;;
42196;SDS011;27866;48.146;17.098;2022-12-18T16:51:29;65.75;;;29.60;;
42196;SDS011;27866;48.146;17.098;2022-12-18T16:55:43;74.75;;;29.70;;
42196;SDS011;27866;48.146;17.098;2022-12-18T16:59:54;75.85;;;30.73;;
42196;SDS011;27866;48.146;17.098;2022-12-18T17:04:06;72.22;;;30.10;;
42196;SDS011;27866;48.146;17.098;2022-12-18T17:08:18;76.68;;;30.55;;
42196;SDS011;27866;48.146;17.098;2022-12-18T17:12:29;67.65;;;30.00;;
42196;SDS011;27866;48.146;17.098;2022-12-18T17:16:40;72.90;;;28.85;;
42196;SDS011;27866;48.146;17.098;2022-12-18T17:20:57;74.75;;;29.63;;
42196;SDS011;27866;48.146;17.098;2022-12-18T17:25:12;74.72;;;30.55;;
42196;SDS011;27866;48.146;17.098;2022-12-18T17:29:23;78.93;;;30.38;;
42196;SDS011;27866;48.146;17.098;2022-12-18T17:33:34;72.30;;;30.17;;
42196;SDS011;27866;48.146;17.098;2022-12-18T17:37:45;70.82;;;30.27;;
42196;SDS011;27866;48.146;17.098;2022-12-18T17:41:58;69.60;;;29.58;;
42196;SDS011;27866;48.146;17.098;2022-12-18T17:46:09;75.63;;;31.95;;
42196;SDS011;27866;48.146;17.098;2022-12-18T17:50:21;72.28;;;29.00;;
42196;SDS011;27866;48.146;17.098;2022-12-18T17:54:32;71.78;;;28.80;;
42196;SDS011;27866;48.146;17.098;2022-12-18T17:58:44;69.72;;;29.13;;
42196;SDS011;27866;48.146;17.098;2022-12-18T18:02:57;73.85;;;29.58;;
42196;SDS011;27866;48.146;17.098;2022-12-18T18:07:08;73.55;;;30.48;;
42196;SDS011;27866;48.146;17.098;2022-12-18T18:11:20;73.80;;;30.98;;
42196;SDS011;27866;48.146;17.098;2022-12-18T18:15:57;74.05;;;31.65;;
42196;SDS011;27866;48.146;17.098;2022-12-18T18:20:09;73.15;;;30.70;;
42196;SDS011;27866;48.146;17.098;2022-12-18T18:24:21;76.45;;;32.38;;
42196;SDS011;27866;48.146;17.098;2022-12-18T18:28:32;77.05;;;31.67;;
42196;SDS011;27866;48.146;17.098;2022-12-18T18:32:44;76.20;;;33.13;;
42196;SDS011;27866;48.146;17.098;2022-12-18T18:36:57;73.70;;;30.80;;
42196;SDS011;27866;48.146;17.098;2022-12-18T18:41:09;71.53;;;30.48;;
42196;SDS011;27866;48.146;17.098;2022-12-18T18:45:20;72.80;;;31.27;;
42196;SDS011;27866;48.146;17.098;2022-12-18T18:49:32;74.45;;;31.80;;
42196;SDS011;27866;48.146;17.098;2022-12-18T18:53:43;73.85;;;32.88;;
42196;SDS011;27866;48.146;17.098;2022-12-18T18:57:56;75.65;;;30.75;;
42196;SDS011;27866;48.146;17.098;2022-12-18T19:02:08;77.53;;;31.05;;
42196;SDS011;27866;48.146;17.098;2022-12-18T19:06:25;78.68;;;30.23;;
42196;SDS011;27866;48.146;17.098;2022-12-18T19:10:39;71.25;;;29.98;;
42196;SDS011;27866;48.146;17.098;2022-12-18T19:14:52;80.37;;;30.73;;
42196;SDS011;27866;48.146;17.098;2022-12-18T19:19:04;76.47;;;29.98;;
42196;SDS011;27866;48.146;17.098;2022-12-18T19:23:16;72.53;;;28.90;;
42196;SDS011;27866;48.146;17.098;2022-12-18T19:27:27;81.15;;;30.42;;
42196;SDS011;27866;48.146;17.098;2022-12-18T19:31:39;76.53;;;30.73;;
42196;SDS011;27866;48.146;17.098;2022-12-18T19:35:50;79.22;;;31.15;;
42196;SDS011;27866;48.146;17.098;2022-12-18T19:40:01;74.03;;;29.90;;
42196;SDS011;27866;48.146;17.098;2022-12-18T19:44:14;70.93;;;30.17;;
42196;SDS011;27866;48.146;17.098;2022-12-18T19:48:26;76.88;;;30.90;;
42196;SDS011;27866;48.146;17.098;2022-12-18T19:52:38;76.85;;;30.45;;
42196;SDS011;27866;48.146;17.098;2022-12-18T19:56:49;73.65;;;30.30;;
42196;SDS011;27866;48.146;17.098;2022-12-18T20:01:02;73.63;;;29.15;;
42196;SDS011;27866;48.146;17.098;2022-12-18T20:05:14;75.43;;;29.33;;
42196;SDS011;27866;48.146;17.098;2022-12-18T20:09:25;72.10;;;29.60;;
42196;SDS011;27866;48.146;17.098;2022-12-18T20:13:36;72.88;;;30.00;;
42196;SDS011;27866;48.146;17.098;2022-12-18T20:17:47;73.93;;;29.58;;
42196;SDS011;27866;48.146;17.098;2022-12-18T20:21:58;76.15;;;29.70;;
42196;SDS011;27866;48.146;17.098;2022-12-18T20:26:10;76.30;;;30.35;;
42196;SDS011;27866;48.146;17.098;2022-12-18T20:30:21;75.47;;;31.23;;
42196;SDS011;27866;48.146;17.098;2022-12-18T20:34:32;83.35;;;30.45;;
42196;SDS011;27866;48.146;17.098;2022-12-18T20:38:43;82.40;;;32.53;;
42196;SDS011;27866;48.146;17.098;2022-12-18T20:42:54;81.85;;;30.90;;
42196;SDS011;27866;48.146;17.098;2022-12-18T20:47:05;90.95;;;33.22;;
42196;SDS011;27866;48.146;17.098;2022-12-18T20:51:18;82.05;;;31.55;;
42196;SDS011;27866;48.146;17.098;2022-12-18T20:55:30;87.22;;;32.50;;
42196;SDS011;27866;48.146;17.098;2022-12-18T20:59:42;86.95;;;33.15;;
42196;SDS011;27866;48.146;17.098;2022-12-18T21:03:53;81.05;;;31.75;;
42196;SDS011;27866;48.146;17.098;2022-12-18T21:08:04;83.40;;;32.00;;
42196;SDS011;27866;48.146;17.098;2022-12-18T21:12:15;83.85;;;33.92;;
42196;SDS011;27866;48.146;17.098;2022-12-18T21:16:48;92.65;;;33.88;;
42196;SDS011;27866;48.146;17.098;2022-12-18T21:21:00;87.20;;;34.63;;
42196;SDS011;27866;48.146;17.098;2022-12-18T21:25:11;88.82;;;34.78;;
42196;SDS011;27866;48.146;17.098;2022-12-18T21:29:23;98.45;;;36.75;;
42196;SDS011;27866;48.146;17.098;2022-12-18T21:33:35;87.82;;;33.25;;
42196;SDS011;27866;48.146;17.098;2022-12-18T21:37:46;90.68;;;35.92;;
42196;SDS011;27866;48.146;17.098;2022-12-18T21:41:57;89.80;;;34.60;;
42196;SDS011;27866;48.146;17.098;2022-12-18T21:46:34;99.38;;;36.10;;
42196;SDS011;27866;48.146;17.098;2022-12-18T21:50:48;93.68;;;34.88;;
42196;SDS011;27866;48.146;17.098;2022-12-18T21:55:00;101.38;;;36.42;;
42196;SDS011;27866;48.146;17.098;2022-12-18T21:59:12;93.35;;;35.47;;
42196;SDS011;27866;48.146;17.098;2022-12-18T22:03:33;95.28;;;36.42;;
42196;SDS011;27866;48.146;17.098;2022-12-18T22:07:44;90.32;;;36.03;;
42196;SDS011;27866;48.146;17.098;2022-12-18T22:11:55;100.03;;;36.05;;
42196;SDS011;27866;48.146;17.098;2022-12-18T22:16:06;95.15;;;37.30;;
42196;SDS011;27866;48.146;17.098;2022-12-18T22:20:18;91.50;;;36.28;;
42196;SDS011;27866;48.146;17.098;2022-12-18T22:24:29;90.15;;;33.78;;
42196;SDS011;27866;48.146;17.098;2022-12-18T22:28:40;97.15;;;38.45;;
42196;SDS011;27866;48.146;17.098;2022-12-18T22:33:10;94.82;;;35.83;;
42196;SDS011;27866;48.146;17.098;2022-12-18T22:37:21;104.60;;;36.17;;
42196;SDS011;27866;48.146;17.098;2022-12-18T22:41:32;92.80;;;34.67;;
42196;SDS011;27866;48.146;17.098;2022-12-18T22:45:43;104.13;;;36.17;;
42196;SDS011;27866;48.146;17.098;2022-12-18T22:49:56;95.53;;;37.10;;
42196;SDS011;27866;48.146;17.098;2022-12-18T22:54:08;110.75;;;36.35;;
42196;SDS011;27866;48.146;17.098;2022-12-18T22:58:19;88.88;;;34.50;;
42196;SDS011;27866;48.146;17.098;2022-12-18T23:02:30;92.43;;;34.33;;
42196;SDS011;27866;48.146;17.098;2022-12-18T23:06:42;99.93;;;36.22;;
42196;SDS011;27866;48.146;17.098;2022-12-18T23:10:54;99.40;;;36.25;;
42196;SDS011;27866;48.146;17.098;2022-12-18T23:15:05;96.00;;;33.72;;
42196;SDS011;27866;48.146;17.098;2022-12-18T23:19:16;84.82;;;33.92;;
42196;SDS011;27866;48.146;17.098;2022-12-18T23:23:27;96.63;;;36.53;;
42196;SDS011;27866;48.146;17.098;2022-12-18T23:27:39;91.65;;;34.90;;
42196;SDS011;27866;48.146;17.098;2022-12-18T23:31:50;96.68;;;34.15;;
42196;SDS011;27866;48.146;17.098;2022-12-18T23:36:01;96.28;;;36.25;;
42196;SDS011;27866;48.146;17.098;2022-12-18T23:40:13;87.28;;;33.17;;
42196;SDS011;27866;48.146;17.098;2022-12-18T23:44:25;100.93;;;35.10;;
42196;SDS011;27866;48.146;17.098;2022-12-18T23:48:36;93.57;;;35.45;;
42196;SDS011;27866;48.146;17.098;2022-12-18T23:52:48;99.13;;;35.78;;
42196;SDS011;27866;48.146;17.098;2022-12-18T23:56:59;101.95;;;37.33;;
